createdAt,value
2019-03-30T00:01:56.886Z,9.13
2019-03-30T00:05:01.265Z,8.70
2019-03-30T00:08:05.669Z,8.70
2019-03-30T00:11:10.216Z,8.90
2019-03-30T00:14:15.225Z,8.70
2019-03-30T00:17:19.698Z,9.10
2019-03-30T00:20:24.488Z,8.43
2019-03-30T00:23:29.460Z,8.17
2019-03-30T00:26:34.767Z,8.87
2019-03-30T00:29:39.601Z,8.97
2019-03-30T00:32:44.673Z,8.13
2019-03-30T00:35:49.293Z,8.80
2019-03-30T00:38:54.151Z,8.40
2019-03-30T00:41:58.541Z,9.03
2019-03-30T00:45:03.042Z,8.60
2019-03-30T00:48:07.663Z,9.13
2019-03-30T00:51:12.689Z,8.77
2019-03-30T00:54:17.428Z,9.30
2019-03-30T00:57:21.965Z,8.87
2019-03-30T01:00:26.534Z,8.90
2019-03-30T01:03:31.543Z,8.83
2019-03-30T01:06:36.043Z,8.73
2019-03-30T01:09:40.666Z,9.43
2019-03-30T01:12:45.453Z,9.47
2019-03-30T01:15:49.926Z,9.50
2019-03-30T01:18:55.047Z,9.70
2019-03-30T01:22:00.130Z,9.83
2019-03-30T01:25:05.476Z,9.40
2019-03-30T01:28:10.515Z,9.37
2019-03-30T01:31:14.986Z,8.93
2019-03-30T01:34:19.717Z,9.27
2019-03-30T01:37:24.520Z,9.07
2019-03-30T01:40:29.051Z,9.63
2019-03-30T01:43:33.468Z,9.33
2019-03-30T01:46:38.140Z,10.23
2019-03-30T01:49:42.550Z,9.73
2019-03-30T01:52:48.227Z,9.87
2019-03-30T01:55:52.737Z,9.80
2019-03-30T01:58:57.573Z,9.83
2019-03-30T02:02:02.121Z,9.87
2019-03-30T02:05:07.083Z,9.73
2019-03-30T02:08:11.556Z,8.53
2019-03-30T02:11:15.955Z,10.03
2019-03-30T02:14:21.421Z,9.60
2019-03-30T02:17:26.570Z,9.40
2019-03-30T02:20:39.453Z,9.50
2019-03-30T02:23:43.954Z,8.70
2019-03-30T02:26:48.924Z,9.27
2019-03-30T02:29:53.362Z,9.27
2019-03-30T02:32:57.818Z,9.63
2019-03-30T02:36:02.679Z,9.33
2019-03-30T02:39:07.720Z,9.27
2019-03-30T02:42:12.181Z,8.73
2019-03-30T02:45:17.058Z,9.80
2019-03-30T02:48:21.641Z,9.47
2019-03-30T02:51:26.442Z,8.93
2019-03-30T02:54:34.198Z,8.80
2019-03-30T02:57:38.607Z,8.93
2019-03-30T03:00:43.051Z,8.80
2019-03-30T03:03:47.748Z,8.90
2019-03-30T03:06:53.180Z,9.60
2019-03-30T03:09:57.909Z,9.33
2019-03-30T03:13:02.501Z,8.47
2019-03-30T03:16:07.044Z,9.50
2019-03-30T03:19:11.542Z,8.80
2019-03-30T03:22:16.184Z,8.57
2019-03-30T03:25:21.425Z,9.10
2019-03-30T03:28:25.884Z,8.70
2019-03-30T03:31:30.718Z,8.50
2019-03-30T03:34:35.231Z,8.63
2019-03-30T03:37:45.714Z,9.40
2019-03-30T03:40:46.425Z,8.70
2019-03-30T03:43:51.557Z,8.53
2019-03-30T03:46:55.969Z,9.17
2019-03-30T03:50:00.624Z,8.80
2019-03-30T03:53:05.455Z,8.70
2019-03-30T03:56:11.530Z,8.83
2019-03-30T03:59:17.318Z,8.80
2019-03-30T04:02:25.578Z,8.93
2019-03-30T04:05:31.764Z,8.33
2019-03-30T04:08:37.587Z,8.50
2019-03-30T04:11:43.871Z,8.40
2019-03-30T04:14:52.234Z,9.10
2019-03-30T04:17:57.022Z,9.03
2019-03-30T04:21:03.170Z,8.80
2019-03-30T04:24:07.903Z,8.73
2019-03-30T04:27:12.781Z,8.13
2019-03-30T04:30:17.307Z,8.50
2019-03-30T04:33:22.435Z,8.30
2019-03-30T04:36:27.179Z,9.00
2019-03-30T04:39:32.012Z,9.20
2019-03-30T04:42:37.035Z,8.87
2019-03-30T04:45:41.504Z,9.40
2019-03-30T04:48:47.361Z,8.63
2019-03-30T04:51:57.836Z,8.87
2019-03-30T04:54:59.087Z,9.43
2019-03-30T04:58:03.762Z,9.03
2019-03-30T05:01:08.291Z,9.23
2019-03-30T05:04:13.062Z,8.73
2019-03-30T05:07:17.550Z,9.03
2019-03-30T05:10:22.151Z,9.30
2019-03-30T05:13:26.655Z,9.40
2019-03-30T05:16:31.288Z,9.27
2019-03-30T05:19:36.400Z,9.10
2019-03-30T05:22:41.180Z,9.60
2019-03-30T05:25:45.777Z,9.77
2019-03-30T05:28:50.204Z,9.63
2019-03-30T05:31:55.025Z,9.03
2019-03-30T05:34:59.537Z,9.17
2019-03-30T05:38:04.542Z,9.40
2019-03-30T05:41:09.548Z,9.30
2019-03-30T05:44:14.413Z,9.23
2019-03-30T05:47:19.321Z,9.90
2019-03-30T05:50:24.333Z,9.67
2019-03-30T05:53:28.945Z,10.13
2019-03-30T05:56:33.821Z,9.47
2019-03-30T05:59:39.249Z,9.37
2019-03-30T06:02:44.063Z,9.63
2019-03-30T06:05:48.898Z,10.40
2019-03-30T06:08:53.725Z,9.50
2019-03-30T06:11:58.473Z,9.27
2019-03-30T06:15:03.123Z,9.70
2019-03-30T06:18:07.630Z,10.10
2019-03-30T06:21:12.463Z,9.20
2019-03-30T06:24:17.609Z,10.13
2019-03-30T06:27:22.501Z,10.30
2019-03-30T06:30:28.074Z,10.50
2019-03-30T06:33:32.894Z,10.70
2019-03-30T06:36:37.657Z,9.80
2019-03-30T06:39:42.066Z,10.13
2019-03-30T06:42:46.562Z,10.17
2019-03-30T06:45:50.984Z,10.93
2019-03-30T06:48:55.475Z,10.67
2019-03-30T06:52:00.059Z,10.27
2019-03-30T06:55:05.205Z,10.53
2019-03-30T06:58:10.287Z,10.53
2019-03-30T07:01:15.432Z,10.87
2019-03-30T07:04:20.127Z,11.10
2019-03-30T07:07:26.938Z,11.03
2019-03-30T07:10:32.452Z,11.37
2019-03-30T07:13:39.837Z,11.30
2019-03-30T07:16:45.850Z,11.63
2019-03-30T07:19:53.724Z,10.87
2019-03-30T07:23:11.070Z,12.03
2019-03-30T07:26:05.359Z,11.97
2019-03-30T07:29:10.274Z,11.70
2019-03-30T07:32:14.867Z,12.30
2019-03-30T07:35:19.396Z,12.93
2019-03-30T07:38:24.248Z,13.40
2019-03-30T07:41:29.213Z,14.03
2019-03-30T07:44:34.116Z,12.77
2019-03-30T07:47:39.201Z,13.27
2019-03-30T07:50:43.743Z,13.17
2019-03-30T07:53:48.608Z,12.80
2019-03-30T07:57:04.228Z,13.10
2019-03-30T07:59:59.632Z,13.00
2019-03-30T08:03:04.603Z,12.23
2019-03-30T08:06:09.248Z,13.63
2019-03-30T08:09:13.884Z,12.50
2019-03-30T08:12:18.565Z,12.53
2019-03-30T08:15:23.056Z,13.10
2019-03-30T08:18:27.563Z,13.23
2019-03-30T08:21:32.408Z,12.67
2019-03-30T08:24:36.892Z,12.47
2019-03-30T08:27:42.084Z,13.70
2019-03-30T08:30:46.600Z,12.60
2019-03-30T08:33:51.424Z,11.90
2019-03-30T08:36:59.188Z,12.30
2019-03-30T08:40:03.274Z,12.20
2019-03-30T08:43:07.790Z,11.50
2019-03-30T08:46:12.563Z,12.10
2019-03-30T08:49:17.159Z,12.43
2019-03-30T08:52:23.344Z,11.40
2019-03-30T08:55:28.275Z,12.13
2019-03-30T08:58:33.013Z,11.73
2019-03-30T09:01:37.829Z,11.60
2019-03-30T09:04:42.326Z,11.67
2019-03-30T09:07:46.906Z,11.10
2019-03-30T09:10:51.260Z,11.20
2019-03-30T09:13:56.224Z,10.87
2019-03-30T09:17:00.803Z,12.20
2019-03-30T09:20:06.990Z,11.57
2019-03-30T09:23:11.393Z,11.33
2019-03-30T09:26:16.764Z,11.17
2019-03-30T09:29:21.703Z,10.97
2019-03-30T09:32:26.480Z,11.67
2019-03-30T09:35:30.886Z,11.53
2019-03-30T09:38:35.516Z,11.57
2019-03-30T09:41:40.159Z,10.80
2019-03-30T09:44:47.730Z,11.53
2019-03-30T09:47:52.887Z,11.77
2019-03-30T09:50:57.437Z,11.77
2019-03-30T09:54:02.054Z,10.97
2019-03-30T09:57:06.606Z,10.57
2019-03-30T10:00:12.039Z,10.70
2019-03-30T10:03:16.549Z,10.27
2019-03-30T10:06:30.526Z,10.33
2019-03-30T10:09:27.345Z,10.50
2019-03-30T10:12:31.845Z,10.13
2019-03-30T10:15:36.448Z,10.10
2019-03-30T10:18:41.445Z,10.00
2019-03-30T10:21:46.271Z,10.50
2019-03-30T10:24:51.206Z,9.30
2019-03-30T10:27:56.237Z,10.63
2019-03-30T10:31:00.717Z,10.37
2019-03-30T10:34:05.466Z,10.30
2019-03-30T10:37:10.098Z,10.47
2019-03-30T10:40:15.105Z,10.20
2019-03-30T10:43:19.625Z,10.13
2019-03-30T10:46:24.625Z,10.03
2019-03-30T10:49:29.408Z,10.37
2019-03-30T10:52:34.228Z,9.87
2019-03-30T10:55:38.779Z,10.07
2019-03-30T10:58:44.536Z,10.60
2019-03-30T11:01:49.120Z,9.87
2019-03-30T11:04:53.472Z,9.70
2019-03-30T11:07:58.102Z,10.40
2019-03-30T11:11:02.690Z,10.03
2019-03-30T11:14:07.496Z,10.10
2019-03-30T11:17:11.936Z,9.87
2019-03-30T11:20:17.375Z,10.07
2019-03-30T11:23:22.246Z,10.10
2019-03-30T11:26:27.033Z,9.67
2019-03-30T11:29:31.546Z,10.47
2019-03-30T11:32:36.354Z,9.47
2019-03-30T11:35:41.381Z,9.20
2019-03-30T11:38:46.854Z,9.90
2019-03-30T11:41:51.761Z,9.57
2019-03-30T11:44:56.277Z,10.03
2019-03-30T11:48:01.229Z,9.40
2019-03-30T11:51:05.933Z,9.70
2019-03-30T11:54:10.632Z,9.90
2019-03-30T11:57:15.791Z,10.10
2019-03-30T12:00:20.684Z,8.87
2019-03-30T12:03:25.061Z,9.53
2019-03-30T12:06:29.889Z,10.40
2019-03-30T12:09:34.364Z,8.47
2019-03-30T12:12:38.963Z,9.23
2019-03-30T12:15:43.681Z,9.23
2019-03-30T12:18:48.646Z,9.13
2019-03-30T12:21:53.201Z,8.70
2019-03-30T12:24:58.224Z,9.53
2019-03-30T12:28:02.882Z,8.97
2019-03-30T12:31:07.492Z,8.80
2019-03-30T12:34:13.243Z,7.50
2019-03-30T12:37:17.767Z,8.67
2019-03-30T12:40:22.497Z,8.83
2019-03-30T12:43:26.935Z,9.37
2019-03-30T12:46:31.655Z,8.33
2019-03-30T12:49:37.622Z,8.83
2019-03-30T12:52:42.113Z,8.23
2019-03-30T12:55:49.389Z,8.30
2019-03-30T12:58:53.338Z,6.50
2019-03-30T13:01:57.804Z,7.97
2019-03-30T13:05:02.720Z,7.57
2019-03-30T13:08:07.304Z,6.47
2019-03-30T13:11:12.203Z,6.73
2019-03-30T13:14:16.587Z,7.00
2019-03-30T13:17:21.047Z,6.20
2019-03-30T13:20:25.567Z,6.20
2019-03-30T13:23:29.995Z,5.57
2019-03-30T13:26:34.584Z,7.10
2019-03-30T13:29:39.021Z,6.87
2019-03-30T13:32:43.535Z,6.93
2019-03-30T13:35:48.102Z,5.67
2019-03-30T13:38:52.548Z,6.27
2019-03-30T13:41:57.671Z,5.90
2019-03-30T13:45:03.910Z,5.30
2019-03-30T13:48:08.467Z,5.60
2019-03-30T13:51:13.016Z,5.10
2019-03-30T13:54:17.699Z,5.20
2019-03-30T13:57:22.138Z,5.53
2019-03-30T14:00:26.559Z,5.23
2019-03-30T14:03:31.461Z,5.60
2019-03-30T14:06:36.006Z,5.20
2019-03-30T14:09:40.710Z,5.30
2019-03-30T14:12:45.147Z,4.70
2019-03-30T14:15:50.037Z,4.73
2019-03-30T14:18:54.884Z,4.70
2019-03-30T14:21:59.521Z,5.30
2019-03-30T14:25:04.023Z,5.27
2019-03-30T14:28:08.751Z,4.87
2019-03-30T14:31:13.323Z,5.27
2019-03-30T14:34:17.754Z,5.10
2019-03-30T14:37:22.341Z,4.73
2019-03-30T14:40:26.767Z,4.83
2019-03-30T14:43:31.496Z,4.83
2019-03-30T14:46:35.942Z,4.90
2019-03-30T14:49:41.043Z,4.50
2019-03-30T14:52:45.411Z,5.63
2019-03-30T14:55:49.989Z,5.00
2019-03-30T14:58:54.431Z,4.73
2019-03-30T15:01:58.809Z,4.87
2019-03-30T15:05:03.513Z,5.03
2019-03-30T15:08:08.459Z,4.93
2019-03-30T15:11:13.180Z,4.80
2019-03-30T15:14:17.772Z,5.90
2019-03-30T15:17:22.257Z,4.93
2019-03-30T15:20:27.060Z,5.00
2019-03-30T15:23:31.727Z,4.70
2019-03-30T15:26:36.363Z,5.00
2019-03-30T15:29:40.908Z,4.57
2019-03-30T15:32:45.392Z,4.67
2019-03-30T15:35:50.115Z,4.90
2019-03-30T15:38:56.383Z,5.23
2019-03-30T15:42:01.504Z,5.10
2019-03-30T15:45:06.439Z,4.77
2019-03-30T15:48:11.165Z,4.63
2019-03-30T15:51:15.592Z,4.57
2019-03-30T15:54:19.923Z,4.20
2019-03-30T15:57:25.446Z,4.93
2019-03-30T16:00:30.163Z,4.30
2019-03-30T16:03:34.568Z,4.70
2019-03-30T16:06:39.052Z,4.20
2019-03-30T16:09:43.356Z,4.37
2019-03-30T16:12:47.960Z,4.70
2019-03-30T16:15:52.839Z,4.50
2019-03-30T16:18:57.178Z,4.10
2019-03-30T16:22:01.673Z,4.13
2019-03-30T16:25:06.831Z,3.60
2019-03-30T16:28:11.163Z,3.37
2019-03-30T16:31:15.579Z,3.27
2019-03-30T16:34:20.122Z,3.20
2019-03-30T16:37:24.605Z,2.93
2019-03-30T16:40:29.208Z,3.37
2019-03-30T16:43:33.633Z,2.90
2019-03-30T16:46:38.560Z,2.97
2019-03-30T16:49:42.895Z,3.27
2019-03-30T16:52:47.740Z,3.50
2019-03-30T16:55:52.132Z,3.40
2019-03-30T16:58:56.797Z,3.00
2019-03-30T17:02:02.104Z,3.07
2019-03-30T17:05:07.659Z,3.23
2019-03-30T17:08:15.172Z,2.83
2019-03-30T17:11:19.639Z,3.60
2019-03-30T17:14:24.058Z,3.63
2019-03-30T17:17:28.653Z,3.53
2019-03-30T17:20:33.193Z,3.47
2019-03-30T17:23:37.695Z,3.60
2019-03-30T17:26:42.212Z,3.60
2019-03-30T17:29:46.724Z,4.30
2019-03-30T17:32:51.186Z,3.90
2019-03-30T17:35:55.808Z,3.93
2019-03-30T17:39:00.573Z,3.87
2019-03-30T17:42:04.935Z,5.00
2019-03-30T17:45:10.471Z,4.80
2019-03-30T17:48:15.512Z,4.63
2019-03-30T17:51:20.012Z,4.57
2019-03-30T17:54:24.525Z,6.00
2019-03-30T17:57:28.901Z,7.17
2019-03-30T18:00:33.453Z,7.70
2019-03-30T18:03:38.103Z,7.80
2019-03-30T18:06:42.563Z,8.03
2019-03-30T18:09:47.093Z,5.90
2019-03-30T18:12:51.547Z,6.10
2019-03-30T18:15:55.929Z,6.20
2019-03-30T18:19:00.764Z,4.97
2019-03-30T18:22:05.411Z,4.80
2019-03-30T18:25:09.953Z,4.50
2019-03-30T18:28:26.614Z,4.37
2019-03-30T18:31:21.219Z,4.10
2019-03-30T18:34:26.376Z,4.17
2019-03-30T18:37:33.373Z,4.50
2019-03-30T18:40:38.096Z,4.10
2019-03-30T18:43:42.651Z,3.67
2019-03-30T18:46:47.359Z,3.70
2019-03-30T18:49:51.804Z,3.93
2019-03-30T18:52:57.415Z,3.53
2019-03-30T18:56:02.145Z,3.90
2019-03-30T18:59:06.791Z,3.63
2019-03-30T19:02:11.431Z,3.97
2019-03-30T19:05:15.767Z,3.60
2019-03-30T19:08:20.687Z,4.00
2019-03-30T19:11:25.312Z,3.57
2019-03-30T19:14:29.808Z,3.97
2019-03-30T19:17:34.446Z,3.87
2019-03-30T19:20:38.788Z,3.93
2019-03-30T19:23:43.204Z,4.07
2019-03-30T19:26:47.583Z,4.07
2019-03-30T19:29:51.956Z,3.87
2019-03-30T19:32:56.340Z,4.10
2019-03-30T19:36:00.718Z,4.23
2019-03-30T19:39:08.599Z,4.47
2019-03-30T19:42:15.734Z,4.60
2019-03-30T19:45:20.935Z,4.73
2019-03-30T19:48:25.527Z,5.13
2019-03-30T19:51:29.915Z,5.23
2019-03-30T19:54:34.552Z,5.00
2019-03-30T19:57:38.947Z,4.87
2019-03-30T20:00:43.428Z,4.70
2019-03-30T20:03:47.814Z,5.70
2019-03-30T20:06:52.149Z,5.57
2019-03-30T20:09:56.719Z,5.50
2019-03-30T20:13:01.142Z,5.50
2019-03-30T20:16:05.547Z,5.93
2019-03-30T20:19:12.567Z,5.83
2019-03-30T20:22:16.322Z,5.97
2019-03-30T20:25:20.686Z,7.47
2019-03-30T20:28:25.273Z,8.10
2019-03-30T20:31:29.680Z,8.27
2019-03-30T20:34:34.158Z,7.60
2019-03-30T20:37:38.932Z,8.10
2019-03-30T20:40:44.417Z,10.03
2019-03-30T20:43:48.789Z,8.17
2019-03-30T20:46:53.211Z,7.87
2019-03-30T20:49:57.663Z,9.50
2019-03-30T20:53:02.146Z,9.43
2019-03-30T20:56:06.851Z,10.17
2019-03-30T20:59:11.605Z,10.13
2019-03-30T21:02:16.013Z,9.83
2019-03-30T21:05:20.914Z,10.07
2019-03-30T21:08:25.257Z,7.97
2019-03-30T21:11:29.819Z,9.03
2019-03-30T21:14:34.143Z,11.27
2019-03-30T21:17:38.460Z,11.10
2019-03-30T21:20:43.038Z,11.13
2019-03-30T21:23:48.030Z,9.40
2019-03-30T21:26:52.610Z,9.53
2019-03-30T21:29:56.931Z,8.70
2019-03-30T21:33:01.543Z,8.63
2019-03-30T21:36:05.968Z,7.43
2019-03-30T21:39:10.554Z,8.30
2019-03-30T21:42:15.204Z,8.40
2019-03-30T21:45:19.565Z,7.97
2019-03-30T21:48:24.087Z,7.87
2019-03-30T21:51:28.746Z,7.90
2019-03-30T21:54:33.084Z,7.83
2019-03-30T21:57:37.879Z,7.57
2019-03-30T22:00:42.693Z,7.77
2019-03-30T22:03:47.158Z,8.17
2019-03-30T22:06:51.605Z,8.30
2019-03-30T22:09:56.655Z,8.13
2019-03-30T22:13:01.435Z,7.87
2019-03-30T22:16:05.868Z,8.10
2019-03-30T22:19:10.922Z,8.10
2019-03-30T22:22:15.305Z,7.83
2019-03-30T22:25:19.727Z,7.53
2019-03-30T22:28:24.367Z,8.50
2019-03-30T22:31:29.139Z,8.50
2019-03-30T22:34:33.408Z,7.73
2019-03-30T22:37:38.149Z,8.03
2019-03-30T22:40:42.859Z,8.70
2019-03-30T22:43:47.545Z,8.07
2019-03-30T22:46:52.187Z,7.83
2019-03-30T22:49:56.563Z,8.17
2019-03-30T22:53:00.960Z,7.30
2019-03-30T22:56:05.462Z,7.53
2019-03-30T22:59:10.432Z,7.87
2019-03-30T23:02:14.809Z,7.10
2019-03-30T23:05:19.298Z,8.27
2019-03-30T23:08:24.270Z,7.60
2019-03-30T23:11:29.001Z,8.07
2019-03-30T23:14:33.693Z,8.17
2019-03-30T23:17:38.373Z,7.47
2019-03-30T23:20:42.971Z,7.47
2019-03-30T23:23:47.438Z,7.30
2019-03-30T23:26:52.140Z,7.07
2019-03-30T23:29:56.568Z,6.77
2019-03-30T23:33:01.115Z,6.97
2019-03-30T23:36:05.742Z,6.73
2019-03-30T23:39:10.748Z,6.60
2019-03-30T23:42:15.261Z,7.50
2019-03-30T23:45:19.800Z,7.37
2019-03-30T23:48:24.875Z,7.50
2019-03-30T23:51:29.516Z,7.50
2019-03-30T23:54:34.464Z,6.83
2019-03-30T23:57:38.954Z,7.50
